sensor_id;sensor_type;location;lat;lon;timestamp;P1;durP1;ratioP1;P2;durP2;ratioP2
64225;SDS011;50545;56.064;26.178;2024-02-26T00:01:31;2.38;;;1.58;;
64225;SDS011;50545;56.064;26.178;2024-02-26T00:04:00;2.17;;;1.50;;
64225;SDS011;50545;56.064;26.178;2024-02-26T00:06:29;3.97;;;1.85;;
64225;SDS011;50545;56.064;26.178;2024-02-26T00:08:58;3.10;;;1.83;;
64225;SDS011;50545;56.064;26.178;2024-02-26T00:11:25;3.22;;;1.75;;
64225;SDS011;50545;56.064;26.178;2024-02-26T00:13:53;2.47;;;1.45;;
64225;SDS011;50545;56.064;26.178;2024-02-26T00:16:21;2.55;;;1.33;;
64225;SDS011;50545;56.064;26.178;2024-02-26T00:18:48;2.88;;;1.95;;
64225;SDS011;50545;56.064;26.178;2024-02-26T00:21:16;2.28;;;1.50;;
64225;SDS011;50545;56.064;26.178;2024-02-26T00:23:44;2.08;;;1.52;;
64225;SDS011;50545;56.064;26.178;2024-02-26T00:26:11;2.33;;;1.38;;
64225;SDS011;50545;56.064;26.178;2024-02-26T00:28:39;2.75;;;1.42;;
64225;SDS011;50545;56.064;26.178;2024-02-26T00:31:06;4.28;;;1.77;;
64225;SDS011;50545;56.064;26.178;2024-02-26T00:33:34;3.70;;;1.80;;
64225;SDS011;50545;56.064;26.178;2024-02-26T00:36:02;3.92;;;1.38;;
64225;SDS011;50545;56.064;26.178;2024-02-26T00:38:30;2.45;;;1.50;;
64225;SDS011;50545;56.064;26.178;2024-02-26T00:40:58;1.98;;;1.45;;
64225;SDS011;50545;56.064;26.178;2024-02-26T00:43:26;3.08;;;2.00;;
64225;SDS011;50545;56.064;26.178;2024-02-26T00:45:53;2.05;;;1.55;;
64225;SDS011;50545;56.064;26.178;2024-02-26T00:48:21;2.53;;;1.67;;
64225;SDS011;50545;56.064;26.178;2024-02-26T00:50:48;1.67;;;1.25;;
64225;SDS011;50545;56.064;26.178;2024-02-26T00:53:16;1.73;;;1.30;;
64225;SDS011;50545;56.064;26.178;2024-02-26T00:55:44;3.50;;;2.00;;
64225;SDS011;50545;56.064;26.178;2024-02-26T00:58:11;2.13;;;1.27;;
64225;SDS011;50545;56.064;26.178;2024-02-26T01:00:39;2.47;;;1.63;;
64225;SDS011;50545;56.064;26.178;2024-02-26T01:03:06;1.50;;;1.38;;
64225;SDS011;50545;56.064;26.178;2024-02-26T01:05:34;2.10;;;1.38;;
64225;SDS011;50545;56.064;26.178;2024-02-26T01:08:02;4.90;;;2.38;;
64225;SDS011;50545;56.064;26.178;2024-02-26T01:10:31;4.38;;;2.30;;
64225;SDS011;50545;56.064;26.178;2024-02-26T01:12:58;1.65;;;1.25;;
64225;SDS011;50545;56.064;26.178;2024-02-26T01:15:26;1.60;;;1.15;;
64225;SDS011;50545;56.064;26.178;2024-02-26T01:17:54;1.00;;;1.00;;
64225;SDS011;50545;56.064;26.178;2024-02-26T01:20:21;2.15;;;1.40;;
64225;SDS011;50545;56.064;26.178;2024-02-26T01:22:49;2.20;;;1.55;;
64225;SDS011;50545;56.064;26.178;2024-02-26T01:25:16;4.45;;;1.98;;
64225;SDS011;50545;56.064;26.178;2024-02-26T01:27:45;4.35;;;2.03;;
64225;SDS011;50545;56.064;26.178;2024-02-26T01:30:12;4.28;;;2.33;;
64225;SDS011;50545;56.064;26.178;2024-02-26T01:32:43;2.65;;;1.70;;
64225;SDS011;50545;56.064;26.178;2024-02-26T01:35:10;1.77;;;1.35;;
64225;SDS011;50545;56.064;26.178;2024-02-26T01:37:38;4.30;;;2.45;;
64225;SDS011;50545;56.064;26.178;2024-02-26T01:40:07;3.78;;;1.85;;
64225;SDS011;50545;56.064;26.178;2024-02-26T01:42:38;4.57;;;1.77;;
64225;SDS011;50545;56.064;26.178;2024-02-26T01:45:05;4.60;;;2.53;;
64225;SDS011;50545;56.064;26.178;2024-02-26T01:47:36;1.42;;;1.15;;
64225;SDS011;50545;56.064;26.178;2024-02-26T01:50:03;2.28;;;1.50;;
64225;SDS011;50545;56.064;26.178;2024-02-26T01:52:32;2.05;;;1.45;;
64225;SDS011;50545;56.064;26.178;2024-02-26T01:55:01;2.22;;;1.77;;
64225;SDS011;50545;56.064;26.178;2024-02-26T01:57:29;1.92;;;1.48;;
64225;SDS011;50545;56.064;26.178;2024-02-26T01:59:57;5.50;;;1.88;;
64225;SDS011;50545;56.064;26.178;2024-02-26T02:02:25;3.67;;;1.65;;
64225;SDS011;50545;56.064;26.178;2024-02-26T02:04:52;5.25;;;2.47;;
64225;SDS011;50545;56.064;26.178;2024-02-26T02:07:20;5.20;;;2.78;;
64225;SDS011;50545;56.064;26.178;2024-02-26T02:09:50;6.47;;;3.20;;
64225;SDS011;50545;56.064;26.178;2024-02-26T02:12:18;2.97;;;1.55;;
64225;SDS011;50545;56.064;26.178;2024-02-26T02:14:45;4.65;;;2.67;;
64225;SDS011;50545;56.064;26.178;2024-02-26T02:17:13;4.13;;;2.72;;
64225;SDS011;50545;56.064;26.178;2024-02-26T02:19:40;3.95;;;2.13;;
64225;SDS011;50545;56.064;26.178;2024-02-26T02:22:08;3.22;;;1.80;;
64225;SDS011;50545;56.064;26.178;2024-02-26T02:24:35;2.88;;;1.60;;
64225;SDS011;50545;56.064;26.178;2024-02-26T02:27:03;4.65;;;2.58;;
64225;SDS011;50545;56.064;26.178;2024-02-26T02:29:31;7.00;;;2.95;;
64225;SDS011;50545;56.064;26.178;2024-02-26T02:31:59;6.22;;;3.03;;
64225;SDS011;50545;56.064;26.178;2024-02-26T02:34:28;9.63;;;4.00;;
64225;SDS011;50545;56.064;26.178;2024-02-26T02:36:56;4.25;;;2.40;;
64225;SDS011;50545;56.064;26.178;2024-02-26T02:39:24;4.70;;;2.58;;
64225;SDS011;50545;56.064;26.178;2024-02-26T02:41:51;4.35;;;2.22;;
64225;SDS011;50545;56.064;26.178;2024-02-26T02:44:19;5.25;;;2.50;;
64225;SDS011;50545;56.064;26.178;2024-02-26T02:46:47;3.45;;;2.35;;
64225;SDS011;50545;56.064;26.178;2024-02-26T02:49:15;4.88;;;2.90;;
64225;SDS011;50545;56.064;26.178;2024-02-26T02:51:43;4.50;;;2.63;;
64225;SDS011;50545;56.064;26.178;2024-02-26T02:54:11;6.03;;;3.25;;
64225;SDS011;50545;56.064;26.178;2024-02-26T02:56:38;4.85;;;3.00;;
64225;SDS011;50545;56.064;26.178;2024-02-26T02:59:06;4.07;;;2.42;;
64225;SDS011;50545;56.064;26.178;2024-02-26T03:01:34;5.90;;;2.85;;
64225;SDS011;50545;56.064;26.178;2024-02-26T03:04:01;4.45;;;2.58;;
64225;SDS011;50545;56.064;26.178;2024-02-26T03:06:29;3.72;;;2.38;;
64225;SDS011;50545;56.064;26.178;2024-02-26T03:08:57;3.95;;;2.20;;
64225;SDS011;50545;56.064;26.178;2024-02-26T03:11:24;4.20;;;2.10;;
64225;SDS011;50545;56.064;26.178;2024-02-26T03:13:53;5.38;;;2.75;;
64225;SDS011;50545;56.064;26.178;2024-02-26T03:16:20;5.18;;;2.60;;
64225;SDS011;50545;56.064;26.178;2024-02-26T03:18:48;3.67;;;2.10;;
64225;SDS011;50545;56.064;26.178;2024-02-26T03:21:16;2.90;;;1.77;;
64225;SDS011;50545;56.064;26.178;2024-02-26T03:23:43;2.90;;;1.85;;
64225;SDS011;50545;56.064;26.178;2024-02-26T03:26:11;5.13;;;2.60;;
64225;SDS011;50545;56.064;26.178;2024-02-26T03:28:41;4.70;;;2.50;;
64225;SDS011;50545;56.064;26.178;2024-02-26T03:31:08;5.07;;;2.42;;
64225;SDS011;50545;56.064;26.178;2024-02-26T03:33:37;3.17;;;2.15;;
64225;SDS011;50545;56.064;26.178;2024-02-26T03:36:05;4.80;;;2.78;;
64225;SDS011;50545;56.064;26.178;2024-02-26T03:38:34;4.13;;;2.13;;
64225;SDS011;50545;56.064;26.178;2024-02-26T03:41:01;3.47;;;1.83;;
64225;SDS011;50545;56.064;26.178;2024-02-26T03:43:29;2.03;;;1.60;;
64225;SDS011;50545;56.064;26.178;2024-02-26T03:45:57;2.40;;;1.98;;
64225;SDS011;50545;56.064;26.178;2024-02-26T03:48:24;4.15;;;1.88;;
64225;SDS011;50545;56.064;26.178;2024-02-26T03:50:52;4.10;;;2.15;;
64225;SDS011;50545;56.064;26.178;2024-02-26T03:53:20;2.03;;;1.73;;
64225;SDS011;50545;56.064;26.178;2024-02-26T03:55:47;2.05;;;1.55;;
64225;SDS011;50545;56.064;26.178;2024-02-26T03:58:16;2.25;;;1.60;;
64225;SDS011;50545;56.064;26.178;2024-02-26T04:00:43;2.60;;;1.55;;
64225;SDS011;50545;56.064;26.178;2024-02-26T04:03:11;2.75;;;1.90;;
64225;SDS011;50545;56.064;26.178;2024-02-26T04:05:39;2.22;;;1.48;;
64225;SDS011;50545;56.064;26.178;2024-02-26T04:08:06;2.28;;;1.48;;
64225;SDS011;50545;56.064;26.178;2024-02-26T04:10:34;2.40;;;1.70;;
64225;SDS011;50545;56.064;26.178;2024-02-26T04:13:02;1.40;;;1.25;;
64225;SDS011;50545;56.064;26.178;2024-02-26T04:15:30;2.95;;;1.65;;
64225;SDS011;50545;56.064;26.178;2024-02-26T04:17:58;2.85;;;1.67;;
64225;SDS011;50545;56.064;26.178;2024-02-26T04:20:26;3.92;;;1.90;;
64225;SDS011;50545;56.064;26.178;2024-02-26T04:22:53;3.17;;;2.03;;
64225;SDS011;50545;56.064;26.178;2024-02-26T04:25:21;2.50;;;1.67;;
64225;SDS011;50545;56.064;26.178;2024-02-26T04:27:48;2.35;;;1.55;;
64225;SDS011;50545;56.064;26.178;2024-02-26T04:30:16;3.38;;;1.90;;
64225;SDS011;50545;56.064;26.178;2024-02-26T04:32:45;2.15;;;1.60;;
64225;SDS011;50545;56.064;26.178;2024-02-26T04:35:12;1.67;;;1.27;;
64225;SDS011;50545;56.064;26.178;2024-02-26T04:37:40;1.63;;;1.40;;
64225;SDS011;50545;56.064;26.178;2024-02-26T04:40:08;1.90;;;1.25;;
64225;SDS011;50545;56.064;26.178;2024-02-26T04:42:35;1.15;;;1.05;;
64225;SDS011;50545;56.064;26.178;2024-02-26T04:45:03;0.77;;;0.77;;
64225;SDS011;50545;56.064;26.178;2024-02-26T04:47:31;0.80;;;0.80;;
64225;SDS011;50545;56.064;26.178;2024-02-26T04:49:58;1.42;;;1.05;;
64225;SDS011;50545;56.064;26.178;2024-02-26T04:52:26;1.63;;;1.17;;
64225;SDS011;50545;56.064;26.178;2024-02-26T04:54:54;1.35;;;1.13;;
64225;SDS011;50545;56.064;26.178;2024-02-26T04:57:22;0.93;;;0.93;;
64225;SDS011;50545;56.064;26.178;2024-02-26T04:59:49;1.40;;;1.27;;
64225;SDS011;50545;56.064;26.178;2024-02-26T05:02:17;1.77;;;1.17;;
64225;SDS011;50545;56.064;26.178;2024-02-26T05:04:45;1.35;;;1.25;;
64225;SDS011;50545;56.064;26.178;2024-02-26T05:07:13;1.00;;;0.88;;
64225;SDS011;50545;56.064;26.178;2024-02-26T05:09:40;1.20;;;1.10;;
64225;SDS011;50545;56.064;26.178;2024-02-26T05:12:09;0.98;;;0.90;;
64225;SDS011;50545;56.064;26.178;2024-02-26T05:14:37;1.23;;;0.90;;
64225;SDS011;50545;56.064;26.178;2024-02-26T05:17:04;2.15;;;1.17;;
64225;SDS011;50545;56.064;26.178;2024-02-26T05:19:32;1.38;;;1.20;;
64225;SDS011;50545;56.064;26.178;2024-02-26T05:22:00;1.85;;;1.20;;
64225;SDS011;50545;56.064;26.178;2024-02-26T05:24:28;0.88;;;0.82;;
64225;SDS011;50545;56.064;26.178;2024-02-26T05:26:55;1.58;;;1.23;;
64225;SDS011;50545;56.064;26.178;2024-02-26T05:29:23;1.42;;;1.20;;
64225;SDS011;50545;56.064;26.178;2024-02-26T05:31:50;2.42;;;1.58;;
64225;SDS011;50545;56.064;26.178;2024-02-26T05:34:18;1.23;;;0.98;;
64225;SDS011;50545;56.064;26.178;2024-02-26T05:36:45;1.45;;;1.10;;
64225;SDS011;50545;56.064;26.178;2024-02-26T05:39:13;0.70;;;0.70;;
64225;SDS011;50545;56.064;26.178;2024-02-26T05:41:46;1.42;;;0.95;;
64225;SDS011;50545;56.064;26.178;2024-02-26T05:44:13;1.40;;;0.95;;
64225;SDS011;50545;56.064;26.178;2024-02-26T05:46:42;1.35;;;1.10;;
64225;SDS011;50545;56.064;26.178;2024-02-26T05:49:10;1.38;;;1.02;;
64225;SDS011;50545;56.064;26.178;2024-02-26T05:51:37;1.00;;;1.00;;
64225;SDS011;50545;56.064;26.178;2024-02-26T05:54:05;1.05;;;0.93;;
64225;SDS011;50545;56.064;26.178;2024-02-26T05:56:32;1.52;;;1.20;;
64225;SDS011;50545;56.064;26.178;2024-02-26T05:59:00;1.55;;;1.40;;
64225;SDS011;50545;56.064;26.178;2024-02-26T06:01:27;2.38;;;1.23;;
64225;SDS011;50545;56.064;26.178;2024-02-26T06:03:55;2.40;;;1.27;;
64225;SDS011;50545;56.064;26.178;2024-02-26T06:06:23;1.58;;;1.08;;
64225;SDS011;50545;56.064;26.178;2024-02-26T06:08:51;1.50;;;1.00;;
64225;SDS011;50545;56.064;26.178;2024-02-26T06:11:18;2.22;;;1.30;;
64225;SDS011;50545;56.064;26.178;2024-02-26T06:13:46;1.08;;;0.98;;
64225;SDS011;50545;56.064;26.178;2024-02-26T06:16:13;1.77;;;1.40;;
64225;SDS011;50545;56.064;26.178;2024-02-26T06:18:41;1.33;;;1.10;;
64225;SDS011;50545;56.064;26.178;2024-02-26T06:21:09;1.38;;;1.20;;
64225;SDS011;50545;56.064;26.178;2024-02-26T06:23:40;2.97;;;1.30;;
64225;SDS011;50545;56.064;26.178;2024-02-26T06:26:07;1.80;;;1.23;;
64225;SDS011;50545;56.064;26.178;2024-02-26T06:28:35;1.95;;;1.20;;
64225;SDS011;50545;56.064;26.178;2024-02-26T06:31:02;2.10;;;1.40;;
64225;SDS011;50545;56.064;26.178;2024-02-26T06:33:30;1.85;;;1.42;;
64225;SDS011;50545;56.064;26.178;2024-02-26T06:35:58;1.80;;;1.52;;
64225;SDS011;50545;56.064;26.178;2024-02-26T06:38:26;1.52;;;1.27;;
64225;SDS011;50545;56.064;26.178;2024-02-26T06:40:53;1.45;;;1.08;;
64225;SDS011;50545;56.064;26.178;2024-02-26T06:43:21;1.73;;;1.42;;
64225;SDS011;50545;56.064;26.178;2024-02-26T06:45:48;2.55;;;1.52;;
64225;SDS011;50545;56.064;26.178;2024-02-26T06:48:16;1.40;;;0.90;;
64225;SDS011;50545;56.064;26.178;2024-02-26T06:50:44;2.35;;;1.58;;
64225;SDS011;50545;56.064;26.178;2024-02-26T06:53:11;4.38;;;2.05;;
64225;SDS011;50545;56.064;26.178;2024-02-26T06:55:38;2.95;;;1.60;;
64225;SDS011;50545;56.064;26.178;2024-02-26T06:58:07;1.60;;;1.50;;
64225;SDS011;50545;56.064;26.178;2024-02-26T07:00:35;2.15;;;1.73;;
64225;SDS011;50545;56.064;26.178;2024-02-26T07:03:03;4.53;;;1.92;;
64225;SDS011;50545;56.064;26.178;2024-02-26T07:05:30;2.15;;;1.48;;
64225;SDS011;50545;56.064;26.178;2024-02-26T07:07:58;3.03;;;1.90;;
64225;SDS011;50545;56.064;26.178;2024-02-26T07:10:25;2.95;;;1.92;;
64225;SDS011;50545;56.064;26.178;2024-02-26T07:12:53;2.55;;;1.45;;
64225;SDS011;50545;56.064;26.178;2024-02-26T07:15:20;1.98;;;1.48;;
64225;SDS011;50545;56.064;26.178;2024-02-26T07:17:48;3.38;;;1.65;;
64225;SDS011;50545;56.064;26.178;2024-02-26T07:20:16;3.42;;;2.05;;
64225;SDS011;50545;56.064;26.178;2024-02-26T07:22:45;2.67;;;1.73;;
64225;SDS011;50545;56.064;26.178;2024-02-26T07:25:12;2.03;;;1.63;;
64225;SDS011;50545;56.064;26.178;2024-02-26T07:27:40;3.25;;;1.90;;
64225;SDS011;50545;56.064;26.178;2024-02-26T07:30:07;3.05;;;1.80;;
64225;SDS011;50545;56.064;26.178;2024-02-26T07:32:36;2.22;;;1.73;;
64225;SDS011;50545;56.064;26.178;2024-02-26T07:35:03;2.95;;;1.80;;
64225;SDS011;50545;56.064;26.178;2024-02-26T07:37:32;2.13;;;1.42;;
64225;SDS011;50545;56.064;26.178;2024-02-26T07:40:00;2.13;;;1.65;;
64225;SDS011;50545;56.064;26.178;2024-02-26T07:42:27;2.17;;;1.48;;
64225;SDS011;50545;56.064;26.178;2024-02-26T07:44:55;1.42;;;1.08;;
64225;SDS011;50545;56.064;26.178;2024-02-26T07:47:22;1.73;;;1.00;;
64225;SDS011;50545;56.064;26.178;2024-02-26T07:49:49;2.38;;;1.58;;
64225;SDS011;50545;56.064;26.178;2024-02-26T07:52:17;1.77;;;1.30;;
64225;SDS011;50545;56.064;26.178;2024-02-26T07:54:44;2.25;;;1.20;;
64225;SDS011;50545;56.064;26.178;2024-02-26T07:57:12;0.85;;;0.85;;
64225;SDS011;50545;56.064;26.178;2024-02-26T07:59:43;1.75;;;1.30;;
64225;SDS011;50545;56.064;26.178;2024-02-26T08:02:11;0.70;;;0.50;;
64225;SDS011;50545;56.064;26.178;2024-02-26T08:04:40;1.23;;;1.08;;
64225;SDS011;50545;56.064;26.178;2024-02-26T08:07:07;0.75;;;0.70;;
64225;SDS011;50545;56.064;26.178;2024-02-26T08:09:35;1.08;;;0.98;;
64225;SDS011;50545;56.064;26.178;2024-02-26T08:12:02;1.25;;;1.15;;
64225;SDS011;50545;56.064;26.178;2024-02-26T08:14:30;2.33;;;1.38;;
64225;SDS011;50545;56.064;26.178;2024-02-26T08:16:59;3.60;;;2.28;;
64225;SDS011;50545;56.064;26.178;2024-02-26T08:19:26;2.22;;;1.65;;
64225;SDS011;50545;56.064;26.178;2024-02-26T08:21:55;3.10;;;2.08;;
64225;SDS011;50545;56.064;26.178;2024-02-26T08:24:22;3.30;;;2.15;;
64225;SDS011;50545;56.064;26.178;2024-02-26T08:26:50;2.90;;;1.77;;
64225;SDS011;50545;56.064;26.178;2024-02-26T08:29:18;3.65;;;2.28;;
64225;SDS011;50545;56.064;26.178;2024-02-26T08:31:45;3.05;;;2.05;;
64225;SDS011;50545;56.064;26.178;2024-02-26T08:34:14;3.47;;;2.10;;
64225;SDS011;50545;56.064;26.178;2024-02-26T08:36:42;2.38;;;1.60;;
64225;SDS011;50545;56.064;26.178;2024-02-26T08:39:10;2.50;;;1.77;;
64225;SDS011;50545;56.064;26.178;2024-02-26T08:41:37;1.70;;;1.50;;
64225;SDS011;50545;56.064;26.178;2024-02-26T08:44:04;2.60;;;1.40;;
64225;SDS011;50545;56.064;26.178;2024-02-26T08:46:32;2.55;;;1.90;;
64225;SDS011;50545;56.064;26.178;2024-02-26T08:48:59;2.22;;;1.60;;
64225;SDS011;50545;56.064;26.178;2024-02-26T08:51:27;1.88;;;1.35;;
64225;SDS011;50545;56.064;26.178;2024-02-26T08:53:54;3.63;;;1.95;;
64225;SDS011;50545;56.064;26.178;2024-02-26T08:56:22;1.83;;;1.30;;
64225;SDS011;50545;56.064;26.178;2024-02-26T08:58:49;1.25;;;1.13;;
64225;SDS011;50545;56.064;26.178;2024-02-26T09:01:20;1.92;;;1.50;;
64225;SDS011;50545;56.064;26.178;2024-02-26T09:03:50;3.20;;;1.75;;
64225;SDS011;50545;56.064;26.178;2024-02-26T09:06:17;1.48;;;1.15;;
64225;SDS011;50545;56.064;26.178;2024-02-26T09:08:45;2.60;;;1.88;;
64225;SDS011;50545;56.064;26.178;2024-02-26T09:11:12;1.80;;;1.45;;
64225;SDS011;50545;56.064;26.178;2024-02-26T09:13:39;0.93;;;0.90;;
64225;SDS011;50545;56.064;26.178;2024-02-26T09:16:07;1.45;;;1.35;;
64225;SDS011;50545;56.064;26.178;2024-02-26T09:18:34;0.77;;;0.77;;
64225;SDS011;50545;56.064;26.178;2024-02-26T09:21:05;1.20;;;1.10;;
64225;SDS011;50545;56.064;26.178;2024-02-26T09:23:33;2.10;;;1.70;;
64225;SDS011;50545;56.064;26.178;2024-02-26T09:26:01;2.17;;;1.80;;
64225;SDS011;50545;56.064;26.178;2024-02-26T09:28:29;1.30;;;0.90;;
64225;SDS011;50545;56.064;26.178;2024-02-26T09:31:01;2.05;;;1.60;;
64225;SDS011;50545;56.064;26.178;2024-02-26T09:33:28;1.42;;;1.30;;
64225;SDS011;50545;56.064;26.178;2024-02-26T09:35:57;2.60;;;1.75;;
64225;SDS011;50545;56.064;26.178;2024-02-26T09:38:25;3.42;;;2.22;;
64225;SDS011;50545;56.064;26.178;2024-02-26T09:40:52;4.30;;;2.60;;
64225;SDS011;50545;56.064;26.178;2024-02-26T09:43:23;4.60;;;2.38;;
64225;SDS011;50545;56.064;26.178;2024-02-26T09:45:52;5.35;;;2.88;;
64225;SDS011;50545;56.064;26.178;2024-02-26T09:48:20;6.20;;;4.00;;
64225;SDS011;50545;56.064;26.178;2024-02-26T09:50:50;4.60;;;2.88;;
64225;SDS011;50545;56.064;26.178;2024-02-26T09:53:19;4.40;;;2.53;;
64225;SDS011;50545;56.064;26.178;2024-02-26T09:55:48;4.67;;;2.90;;
64225;SDS011;50545;56.064;26.178;2024-02-26T09:58:16;5.22;;;2.67;;
64225;SDS011;50545;56.064;26.178;2024-02-26T10:00:46;2.20;;;1.75;;
64225;SDS011;50545;56.064;26.178;2024-02-26T10:03:19;2.20;;;1.58;;
64225;SDS011;50545;56.064;26.178;2024-02-26T10:05:51;2.78;;;1.98;;
64225;SDS011;50545;56.064;26.178;2024-02-26T10:08:22;2.88;;;1.67;;
64225;SDS011;50545;56.064;26.178;2024-02-26T10:10:50;4.95;;;3.30;;
64225;SDS011;50545;56.064;26.178;2024-02-26T10:13:18;4.57;;;2.90;;
64225;SDS011;50545;56.064;26.178;2024-02-26T10:15:47;3.72;;;2.35;;
64225;SDS011;50545;56.064;26.178;2024-02-26T10:18:14;3.10;;;2.17;;
64225;SDS011;50545;56.064;26.178;2024-02-26T10:20:42;1.55;;;1.45;;
64225;SDS011;50545;56.064;26.178;2024-02-26T10:23:25;2.95;;;1.67;;
64225;SDS011;50545;56.064;26.178;2024-02-26T10:25:55;2.47;;;2.03;;
64225;SDS011;50545;56.064;26.178;2024-02-26T10:28:23;2.80;;;1.67;;
64225;SDS011;50545;56.064;26.178;2024-02-26T10:30:51;2.60;;;1.73;;
64225;SDS011;50545;56.064;26.178;2024-02-26T10:33:19;3.00;;;1.42;;
64225;SDS011;50545;56.064;26.178;2024-02-26T10:35:47;1.60;;;1.50;;
64225;SDS011;50545;56.064;26.178;2024-02-26T10:38:16;1.80;;;1.63;;
64225;SDS011;50545;56.064;26.178;2024-02-26T10:40:48;1.95;;;1.50;;
64225;SDS011;50545;56.064;26.178;2024-02-26T10:43:16;2.58;;;1.95;;
64225;SDS011;50545;56.064;26.178;2024-02-26T10:45:45;2.38;;;1.90;;
64225;SDS011;50545;56.064;26.178;2024-02-26T10:48:14;2.03;;;1.63;;
64225;SDS011;50545;56.064;26.178;2024-02-26T10:50:42;3.80;;;2.20;;
64225;SDS011;50545;56.064;26.178;2024-02-26T10:53:15;2.17;;;1.90;;
64225;SDS011;50545;56.064;26.178;2024-02-26T10:55:52;3.63;;;1.77;;
64225;SDS011;50545;56.064;26.178;2024-02-26T10:58:28;2.70;;;1.70;;
64225;SDS011;50545;56.064;26.178;2024-02-26T11:00:57;2.30;;;1.67;;
64225;SDS011;50545;56.064;26.178;2024-02-26T11:03:25;2.72;;;1.83;;
64225;SDS011;50545;56.064;26.178;2024-02-26T11:05:54;2.75;;;1.88;;
64225;SDS011;50545;56.064;26.178;2024-02-26T11:08:24;3.47;;;2.00;;
64225;SDS011;50545;56.064;26.178;2024-02-26T11:10:53;3.05;;;1.85;;
64225;SDS011;50545;56.064;26.178;2024-02-26T11:13:22;2.75;;;1.95;;
64225;SDS011;50545;56.064;26.178;2024-02-26T11:15:55;3.53;;;2.13;;
64225;SDS011;50545;56.064;26.178;2024-02-26T11:18:27;2.55;;;1.90;;
64225;SDS011;50545;56.064;26.178;2024-02-26T11:20:54;2.30;;;1.90;;
64225;SDS011;50545;56.064;26.178;2024-02-26T11:23:24;2.90;;;2.10;;
64225;SDS011;50545;56.064;26.178;2024-02-26T11:25:54;2.93;;;1.90;;
64225;SDS011;50545;56.064;26.178;2024-02-26T11:28:26;2.33;;;1.90;;
64225;SDS011;50545;56.064;26.178;2024-02-26T11:30:55;2.28;;;1.77;;
64225;SDS011;50545;56.064;26.178;2024-02-26T11:33:26;2.08;;;1.88;;
64225;SDS011;50545;56.064;26.178;2024-02-26T11:35:55;2.85;;;2.08;;
64225;SDS011;50545;56.064;26.178;2024-02-26T11:38:23;3.15;;;2.05;;
64225;SDS011;50545;56.064;26.178;2024-02-26T11:40:53;10.40;;;3.05;;
64225;SDS011;50545;56.064;26.178;2024-02-26T11:43:49;4.00;;;2.33;;
64225;SDS011;50545;56.064;26.178;2024-02-26T11:46:28;3.72;;;2.53;;
64225;SDS011;50545;56.064;26.178;2024-02-26T11:49:01;3.90;;;2.67;;
64225;SDS011;50545;56.064;26.178;2024-02-26T11:51:34;3.28;;;2.38;;
64225;SDS011;50545;56.064;26.178;2024-02-26T11:54:02;3.08;;;2.20;;
64225;SDS011;50545;56.064;26.178;2024-02-26T11:56:29;2.83;;;2.30;;
64225;SDS011;50545;56.064;26.178;2024-02-26T11:59:09;1.70;;;1.40;;
64225;SDS011;50545;56.064;26.178;2024-02-26T12:01:38;4.82;;;3.15;;
64225;SDS011;50545;56.064;26.178;2024-02-26T12:04:22;2.72;;;1.85;;
64225;SDS011;50545;56.064;26.178;2024-02-26T12:06:56;2.80;;;2.00;;
64225;SDS011;50545;56.064;26.178;2024-02-26T12:09:45;2.65;;;2.03;;
64225;SDS011;50545;56.064;26.178;2024-02-26T12:12:17;3.47;;;1.63;;
64225;SDS011;50545;56.064;26.178;2024-02-26T12:14:57;2.50;;;1.70;;
64225;SDS011;50545;56.064;26.178;2024-02-26T12:17:25;1.63;;;1.52;;
64225;SDS011;50545;56.064;26.178;2024-02-26T12:19:53;2.88;;;2.03;;
64225;SDS011;50545;56.064;26.178;2024-02-26T12:22:20;2.35;;;1.90;;
64225;SDS011;50545;56.064;26.178;2024-02-26T12:24:48;2.33;;;1.80;;
64225;SDS011;50545;56.064;26.178;2024-02-26T12:27:25;2.42;;;1.80;;
64225;SDS011;50545;56.064;26.178;2024-02-26T12:29:53;1.40;;;1.30;;
64225;SDS011;50545;56.064;26.178;2024-02-26T12:32:20;1.98;;;1.63;;
64225;SDS011;50545;56.064;26.178;2024-02-26T12:34:47;2.60;;;1.98;;
64225;SDS011;50545;56.064;26.178;2024-02-26T12:37:16;1.83;;;1.55;;
64225;SDS011;50545;56.064;26.178;2024-02-26T12:39:44;1.52;;;1.38;;
64225;SDS011;50545;56.064;26.178;2024-02-26T12:42:12;2.10;;;1.58;;
64225;SDS011;50545;56.064;26.178;2024-02-26T12:44:41;2.78;;;1.42;;
64225;SDS011;50545;56.064;26.178;2024-02-26T12:47:08;1.98;;;1.63;;
64225;SDS011;50545;56.064;26.178;2024-02-26T12:49:39;1.52;;;1.42;;
64225;SDS011;50545;56.064;26.178;2024-02-26T12:52:08;2.03;;;1.48;;
64225;SDS011;50545;56.064;26.178;2024-02-26T12:54:37;2.13;;;1.70;;
64225;SDS011;50545;56.064;26.178;2024-02-26T12:57:06;1.45;;;1.35;;
64225;SDS011;50545;56.064;26.178;2024-02-26T12:59:35;1.98;;;1.30;;
64225;SDS011;50545;56.064;26.178;2024-02-26T13:02:04;1.73;;;1.35;;
64225;SDS011;50545;56.064;26.178;2024-02-26T13:04:33;3.25;;;1.45;;
64225;SDS011;50545;56.064;26.178;2024-02-26T13:07:03;2.13;;;1.50;;
64225;SDS011;50545;56.064;26.178;2024-02-26T13:09:32;1.83;;;1.33;;
64225;SDS011;50545;56.064;26.178;2024-02-26T13:14:34;1.50;;;1.10;;
64225;SDS011;50545;56.064;26.178;2024-02-26T13:17:01;1.35;;;1.15;;
64225;SDS011;50545;56.064;26.178;2024-02-26T13:19:31;1.15;;;0.90;;
64225;SDS011;50545;56.064;26.178;2024-02-26T13:22:05;1.70;;;1.60;;
64225;SDS011;50545;56.064;26.178;2024-02-26T13:24:34;1.55;;;1.20;;
64225;SDS011;50545;56.064;26.178;2024-02-26T13:27:02;1.42;;;1.33;;
64225;SDS011;50545;56.064;26.178;2024-02-26T13:29:31;1.27;;;1.00;;
64225;SDS011;50545;56.064;26.178;2024-02-26T13:31:59;2.50;;;1.33;;
64225;SDS011;50545;56.064;26.178;2024-02-26T13:34:27;2.45;;;1.25;;
64225;SDS011;50545;56.064;26.178;2024-02-26T13:36:56;1.33;;;1.05;;
64225;SDS011;50545;56.064;26.178;2024-02-26T13:39:24;1.23;;;1.13;;
64225;SDS011;50545;56.064;26.178;2024-02-26T13:41:53;2.15;;;1.30;;
64225;SDS011;50545;56.064;26.178;2024-02-26T13:44:21;1.42;;;1.30;;
64225;SDS011;50545;56.064;26.178;2024-02-26T13:46:49;2.00;;;1.35;;
64225;SDS011;50545;56.064;26.178;2024-02-26T13:49:17;2.17;;;1.17;;
64225;SDS011;50545;56.064;26.178;2024-02-26T13:51:45;1.27;;;1.15;;
64225;SDS011;50545;56.064;26.178;2024-02-26T13:54:12;1.70;;;1.60;;
64225;SDS011;50545;56.064;26.178;2024-02-26T13:56:41;2.40;;;1.45;;
64225;SDS011;50545;56.064;26.178;2024-02-26T13:59:12;2.38;;;1.25;;
64225;SDS011;50545;56.064;26.178;2024-02-26T14:01:39;1.35;;;1.02;;
64225;SDS011;50545;56.064;26.178;2024-02-26T14:04:07;1.73;;;1.13;;
64225;SDS011;50545;56.064;26.178;2024-02-26T14:06:36;1.73;;;1.27;;
64225;SDS011;50545;56.064;26.178;2024-02-26T14:09:04;1.08;;;0.98;;
64225;SDS011;50545;56.064;26.178;2024-02-26T14:11:31;2.08;;;1.20;;
64225;SDS011;50545;56.064;26.178;2024-02-26T14:13:59;1.13;;;1.02;;
64225;SDS011;50545;56.064;26.178;2024-02-26T14:16:26;1.13;;;0.93;;
64225;SDS011;50545;56.064;26.178;2024-02-26T14:18:57;1.33;;;1.08;;
64225;SDS011;50545;56.064;26.178;2024-02-26T14:21:25;1.38;;;0.95;;
64225;SDS011;50545;56.064;26.178;2024-02-26T14:23:54;1.55;;;1.13;;
64225;SDS011;50545;56.064;26.178;2024-02-26T14:26:22;1.23;;;1.02;;
64225;SDS011;50545;56.064;26.178;2024-02-26T14:28:50;1.27;;;0.93;;
64225;SDS011;50545;56.064;26.178;2024-02-26T14:31:17;1.25;;;1.10;;
64225;SDS011;50545;56.064;26.178;2024-02-26T14:33:45;1.13;;;0.90;;
64225;SDS011;50545;56.064;26.178;2024-02-26T14:36:14;2.33;;;1.50;;
64225;SDS011;50545;56.064;26.178;2024-02-26T14:38:43;1.10;;;1.00;;
64225;SDS011;50545;56.064;26.178;2024-02-26T14:41:11;1.08;;;0.95;;
64225;SDS011;50545;56.064;26.178;2024-02-26T14:43:38;1.40;;;1.15;;